sensor_id;sensor_type;location;lat;lon;timestamp;pressure;altitude;pressure_sealevel;temperature;humidity
50696;BME280;36665;51.786;21.594;2022-09-01T00:01:37;95243.98;;;12.03;63.17
50696;BME280;36665;51.786;21.594;2022-09-01T00:10:05;95238.37;;;12.00;63.26
50696;BME280;36665;51.786;21.594;2022-09-01T00:18:30;95223.64;;;11.97;63.20
50696;BME280;36665;51.786;21.594;2022-09-01T00:26:54;95224.09;;;11.97;63.22
50696;BME280;36665;51.786;21.594;2022-09-01T00:35:18;95226.59;;;11.97;63.33
50696;BME280;36665;51.786;21.594;2022-09-01T00:43:50;95189.58;;;11.88;63.51
50696;BME280;36665;51.786;21.594;2022-09-01T00:52:37;95154.67;;;11.80;63.49
50696;BME280;36665;51.786;21.594;2022-09-01T01:01:03;95110.23;;;11.68;63.29
50696;BME280;36665;51.786;21.594;2022-09-01T01:09:35;95039.02;;;11.49;63.30
50696;BME280;36665;51.786;21.594;2022-09-01T01:18:00;94980.90;;;11.34;63.34
50696;BME280;36665;51.786;21.594;2022-09-01T01:26:23;94930.95;;;11.23;63.43
50696;BME280;36665;51.786;21.594;2022-09-01T01:34:46;94867.27;;;11.05;63.46
50696;BME280;36665;51.786;21.594;2022-09-01T01:43:10;94801.95;;;10.89;63.51
50696;BME280;36665;51.786;21.594;2022-09-01T01:51:41;94764.24;;;10.78;63.45
50696;BME280;36665;51.786;21.594;2022-09-01T02:00:07;94724.64;;;10.69;63.37
50696;BME280;36665;51.786;21.594;2022-09-01T02:08:35;94668.83;;;10.55;63.39
50696;BME280;36665;51.786;21.594;2022-09-01T02:16:58;94616.33;;;10.41;63.36
50696;BME280;36665;51.786;21.594;2022-09-01T02:25:23;94538.30;;;10.20;63.36
50696;BME280;36665;51.786;21.594;2022-09-01T02:33:51;94429.50;;;9.91;63.40
50696;BME280;36665;51.786;21.594;2022-09-01T02:42:16;94405.16;;;9.85;63.48
50696;BME280;36665;51.786;21.594;2022-09-01T02:50:40;94386.51;;;9.80;63.52
50696;BME280;36665;51.786;21.594;2022-09-01T02:59:03;94323.70;;;9.63;63.42
50696;BME280;36665;51.786;21.594;2022-09-01T03:07:27;94295.52;;;9.57;63.39
50696;BME280;36665;51.786;21.594;2022-09-01T03:15:51;94264.89;;;9.48;63.50
50696;BME280;36665;51.786;21.594;2022-09-01T03:24:16;94248.66;;;9.44;63.48
50696;BME280;36665;51.786;21.594;2022-09-01T03:32:40;94256.22;;;9.46;63.53
50696;BME280;36665;51.786;21.594;2022-09-01T03:41:04;94237.80;;;9.42;63.40
50696;BME280;36665;51.786;21.594;2022-09-01T03:49:28;94183.78;;;9.27;63.41
50696;BME280;36665;51.786;21.594;2022-09-01T03:57:54;94180.41;;;9.27;63.61
50696;BME280;36665;51.786;21.594;2022-09-01T04:06:18;94168.05;;;9.23;63.67
50696;BME280;36665;51.786;21.594;2022-09-01T04:14:46;94135.69;;;9.15;63.45
50696;BME280;36665;51.786;21.594;2022-09-01T04:23:10;94202.84;;;9.32;63.62
50696;BME280;36665;51.786;21.594;2022-09-01T04:31:35;94311.45;;;9.61;63.68
50696;BME280;36665;51.786;21.594;2022-09-01T04:40:00;94360.60;;;9.74;63.77
50696;BME280;36665;51.786;21.594;2022-09-01T04:48:26;94397.17;;;9.82;63.83
50696;BME280;36665;51.786;21.594;2022-09-01T04:56:51;94440.59;;;9.94;64.12
50696;BME280;36665;51.786;21.594;2022-09-01T05:05:21;94488.52;;;10.07;64.04
50696;BME280;36665;51.786;21.594;2022-09-01T05:13:46;94552.77;;;10.23;64.21
50696;BME280;36665;51.786;21.594;2022-09-01T05:22:10;94925.55;;;11.20;64.30
50696;BME280;36665;51.786;21.594;2022-09-01T05:30:39;96031.70;;;13.99;64.93
50696;BME280;36665;51.786;21.594;2022-09-01T05:39:04;97118.05;;;16.67;65.57
50696;BME280;36665;51.786;21.594;2022-09-01T05:47:28;97942.98;;;18.64;65.84
50696;BME280;36665;51.786;21.594;2022-09-01T05:55:51;98501.99;;;19.93;66.15
50696;BME280;36665;51.786;21.594;2022-09-01T06:04:19;98812.86;;;20.65;66.18
50696;BME280;36665;51.786;21.594;2022-09-01T06:12:42;98979.30;;;21.01;66.51
50696;BME280;36665;51.786;21.594;2022-09-01T06:21:11;98650.00;;;20.23;66.65
50696;BME280;36665;51.786;21.594;2022-09-01T06:29:38;98177.87;;;19.14;66.44
50696;BME280;36665;51.786;21.594;2022-09-01T06:38:02;97704.02;;;18.01;66.20
50696;BME280;36665;51.786;21.594;2022-09-01T06:46:39;97471.65;;;17.44;66.00
50696;BME280;36665;51.786;21.594;2022-09-01T06:55:02;97516.73;;;17.57;65.93
50696;BME280;36665;51.786;21.594;2022-09-01T07:03:31;97660.93;;;17.92;66.11
50696;BME280;36665;51.786;21.594;2022-09-01T07:12:09;97797.52;;;18.24;66.06
50696;BME280;36665;51.786;21.594;2022-09-01T07:20:49;97838.36;;;18.34;66.11
50696;BME280;36665;51.786;21.594;2022-09-01T07:29:36;97895.36;;;18.47;66.25
50696;BME280;36665;51.786;21.594;2022-09-01T07:38:03;97946.10;;;18.59;65.92
50696;BME280;36665;51.786;21.594;2022-09-01T07:46:51;97953.29;;;18.61;65.98
50696;BME280;36665;51.786;21.594;2022-09-01T07:55:34;97964.90;;;18.63;66.08
50696;BME280;36665;51.786;21.594;2022-09-01T08:03:59;97957.55;;;18.61;66.09
50696;BME280;36665;51.786;21.594;2022-09-01T08:12:24;97880.02;;;18.44;65.96
50696;BME280;36665;51.786;21.594;2022-09-01T08:20:51;97921.53;;;18.54;65.93
50696;BME280;36665;51.786;21.594;2022-09-01T08:29:19;97989.94;;;18.70;66.14
50696;BME280;36665;51.786;21.594;2022-09-01T08:37:42;98081.57;;;18.92;65.74
50696;BME280;36665;51.786;21.594;2022-09-01T08:46:27;98200.22;;;19.21;65.97
50696;BME280;36665;51.786;21.594;2022-09-01T08:54:59;98377.67;;;19.61;66.00
50696;BME280;36665;51.786;21.594;2022-09-01T09:12:38;98337.97;;;19.52;65.86
50696;BME280;36665;51.786;21.594;2022-09-01T09:21:19;98410.52;;;19.70;65.89
50696;BME280;36665;51.786;21.594;2022-09-01T09:30:08;98461.73;;;19.81;66.02
50696;BME280;36665;51.786;21.594;2022-09-01T09:38:33;98522.70;;;19.95;65.96
50696;BME280;36665;51.786;21.594;2022-09-01T09:46:57;98309.32;;;19.46;65.60
50696;BME280;36665;51.786;21.594;2022-09-01T09:55:28;98313.92;;;19.47;65.40
50696;BME280;36665;51.786;21.594;2022-09-01T10:03:54;98465.34;;;19.83;65.85
50696;BME280;36665;51.786;21.594;2022-09-01T10:12:19;98554.00;;;20.04;65.82
50696;BME280;36665;51.786;21.594;2022-09-01T10:20:56;98673.90;;;20.32;65.86
50696;BME280;36665;51.786;21.594;2022-09-01T10:29:34;98656.70;;;20.29;65.61
50696;BME280;36665;51.786;21.594;2022-09-01T10:38:19;98526.75;;;19.99;65.44
50696;BME280;36665;51.786;21.594;2022-09-01T10:46:44;98446.06;;;19.80;65.53
50696;BME280;36665;51.786;21.594;2022-09-01T10:55:18;98477.83;;;19.88;65.30
50696;BME280;36665;51.786;21.594;2022-09-01T11:03:54;98529.33;;;20.01;65.30
50696;BME280;36665;51.786;21.594;2022-09-01T11:21:28;98688.30;;;20.38;65.43
50696;BME280;36665;51.786;21.594;2022-09-01T11:30:15;98709.87;;;20.44;65.38
50696;BME280;36665;51.786;21.594;2022-09-01T11:39:08;98546.33;;;20.06;65.29
50696;BME280;36665;51.786;21.594;2022-09-01T11:47:45;98366.33;;;19.65;64.97
50696;BME280;36665;51.786;21.594;2022-09-01T11:56:25;98364.85;;;19.65;64.99
50696;BME280;36665;51.786;21.594;2022-09-01T12:04:49;98189.88;;;19.24;64.89
50696;BME280;36665;51.786;21.594;2022-09-01T12:13:19;98180.35;;;19.23;64.60
50696;BME280;36665;51.786;21.594;2022-09-01T12:22:17;98346.70;;;19.63;64.76
50696;BME280;36665;51.786;21.594;2022-09-01T12:30:40;98542.71;;;20.08;64.71
50696;BME280;36665;51.786;21.594;2022-09-01T12:39:24;98746.29;;;20.56;64.83
50696;BME280;36665;51.786;21.594;2022-09-01T12:47:49;98719.42;;;20.50;64.67
50696;BME280;36665;51.786;21.594;2022-09-01T12:56:23;98576.61;;;20.17;64.73
50696;BME280;36665;51.786;21.594;2022-09-01T13:04:48;98452.45;;;19.90;64.39
50696;BME280;36665;51.786;21.594;2022-09-01T13:13:12;98463.43;;;19.92;64.46
50696;BME280;36665;51.786;21.594;2022-09-01T13:21:36;98539.73;;;20.10;64.49
50696;BME280;36665;51.786;21.594;2022-09-01T13:29:59;98603.67;;;20.26;64.35
50696;BME280;36665;51.786;21.594;2022-09-01T13:38:22;98577.33;;;20.20;64.16
50696;BME280;36665;51.786;21.594;2022-09-01T13:46:46;98545.97;;;20.13;64.07
50696;BME280;36665;51.786;21.594;2022-09-01T13:55:32;98492.60;;;20.02;64.08
50696;BME280;36665;51.786;21.594;2022-09-01T14:03:55;98367.78;;;19.73;63.98
50696;BME280;36665;51.786;21.594;2022-09-01T14:12:22;98100.27;;;19.10;63.79
50696;BME280;36665;51.786;21.594;2022-09-01T14:20:48;98025.15;;;18.93;63.81
50696;BME280;36665;51.786;21.594;2022-09-01T14:29:12;98076.70;;;19.06;63.62
50696;BME280;36665;51.786;21.594;2022-09-01T14:37:37;98164.44;;;19.27;63.68
50696;BME280;36665;51.786;21.594;2022-09-01T14:46:06;98208.61;;;19.39;63.49
50696;BME280;36665;51.786;21.594;2022-09-01T14:54:30;98235.34;;;19.46;63.61
50696;BME280;36665;51.786;21.594;2022-09-01T15:02:54;98223.55;;;19.44;63.37
50696;BME280;36665;51.786;21.594;2022-09-01T15:11:19;98205.55;;;19.40;63.48
50696;BME280;36665;51.786;21.594;2022-09-01T15:19:42;98169.60;;;19.32;63.42
50696;BME280;36665;51.786;21.594;2022-09-01T15:28:06;98136.58;;;19.24;63.22
50696;BME280;36665;51.786;21.594;2022-09-01T15:36:29;98098.69;;;19.16;63.17
50696;BME280;36665;51.786;21.594;2022-09-01T15:44:53;98045.80;;;19.04;63.00
50696;BME280;36665;51.786;21.594;2022-09-01T15:53:17;97970.26;;;18.86;63.25
50696;BME280;36665;51.786;21.594;2022-09-01T16:01:44;97870.38;;;18.63;62.91
50696;BME280;36665;51.786;21.594;2022-09-01T16:10:10;97776.31;;;18.41;62.73
50696;BME280;36665;51.786;21.594;2022-09-01T16:18:42;97660.08;;;18.13;62.83
50696;BME280;36665;51.786;21.594;2022-09-01T16:27:12;97542.30;;;17.85;62.48
50696;BME280;36665;51.786;21.594;2022-09-01T16:35:46;97441.20;;;17.61;62.58
50696;BME280;36665;51.786;21.594;2022-09-01T17:18:37;96824.23;;;16.13;61.88
50696;BME280;36665;51.786;21.594;2022-09-01T17:27:06;96700.10;;;15.83;61.84
50696;BME280;36665;51.786;21.594;2022-09-01T17:44:30;96454.60;;;15.23;61.76
50696;BME280;36665;51.786;21.594;2022-09-01T17:53:15;96328.72;;;14.92;61.49
50696;BME280;36665;51.786;21.594;2022-09-01T18:19:23;95920.05;;;13.91;61.29
50696;BME280;36665;51.786;21.594;2022-09-01T18:27:48;95806.30;;;13.62;61.12
50696;BME280;36665;51.786;21.594;2022-09-01T18:45:06;95584.13;;;13.07;61.17
50696;BME280;36665;51.786;21.594;2022-09-01T18:53:48;95408.20;;;12.62;61.00
50696;BME280;36665;51.786;21.594;2022-09-01T19:02:25;95290.20;;;12.31;60.85
50696;BME280;36665;51.786;21.594;2022-09-01T19:19:47;95223.30;;;12.15;60.82
50696;BME280;36665;51.786;21.594;2022-09-01T19:28:39;95165.59;;;12.01;60.70
50696;BME280;36665;51.786;21.594;2022-09-01T19:37:08;95094.88;;;11.83;60.77
50696;BME280;36665;51.786;21.594;2022-09-01T19:45:49;94945.91;;;11.46;60.68
50696;BME280;36665;51.786;21.594;2022-09-01T19:54:28;94827.88;;;11.16;60.73
50696;BME280;36665;51.786;21.594;2022-09-01T20:11:44;94803.40;;;11.10;60.45
50696;BME280;36665;51.786;21.594;2022-09-01T20:20:45;94778.09;;;11.04;60.51
50696;BME280;36665;51.786;21.594;2022-09-01T20:29:18;94739.29;;;10.94;60.58
50696;BME280;36665;51.786;21.594;2022-09-01T20:37:55;94716.59;;;10.88;60.48
50696;BME280;36665;51.786;21.594;2022-09-01T20:46:21;94699.92;;;10.84;60.60
50696;BME280;36665;51.786;21.594;2022-09-01T20:54:54;94665.67;;;10.76;60.57
50696;BME280;36665;51.786;21.594;2022-09-01T21:12:29;94577.40;;;10.53;60.60
50696;BME280;36665;51.786;21.594;2022-09-01T21:38:09;94465.56;;;10.25;60.46
50696;BME280;36665;51.786;21.594;2022-09-01T21:46:32;94466.29;;;10.24;60.56
50696;BME280;36665;51.786;21.594;2022-09-01T21:54:56;94451.92;;;10.21;60.43
50696;BME280;36665;51.786;21.594;2022-09-01T22:03:19;94399.68;;;10.07;60.41
50696;BME280;36665;51.786;21.594;2022-09-01T22:11:43;94310.27;;;9.83;60.57
50696;BME280;36665;51.786;21.594;2022-09-01T22:20:09;94249.86;;;9.68;60.45
50696;BME280;36665;51.786;21.594;2022-09-01T22:28:34;94185.55;;;9.51;60.38
50696;BME280;36665;51.786;21.594;2022-09-01T22:36:57;94126.05;;;9.35;60.48
50696;BME280;36665;51.786;21.594;2022-09-01T22:45:20;94063.14;;;9.18;60.44
50696;BME280;36665;51.786;21.594;2022-09-01T22:53:44;94042.07;;;9.13;60.20
50696;BME280;36665;51.786;21.594;2022-09-01T23:02:09;94005.14;;;9.04;60.35
50696;BME280;36665;51.786;21.594;2022-09-01T23:10:32;93978.57;;;8.97;60.35
50696;BME280;36665;51.786;21.594;2022-09-01T23:18:55;93973.01;;;8.95;60.51
50696;BME280;36665;51.786;21.594;2022-09-01T23:27:18;93936.18;;;8.86;60.35
50696;BME280;36665;51.786;21.594;2022-09-01T23:35:50;93899.34;;;8.77;60.27
50696;BME280;36665;51.786;21.594;2022-09-01T23:44:14;93936.73;;;8.87;60.42
50696;BME280;36665;51.786;21.594;2022-09-01T23:52:37;93956.95;;;8.92;60.39
